sensor_id;sensor_type;location;lat;lon;timestamp;pressure;altitude;pressure_sealevel;temperature;humidity
76694;BME280;69667;52.136;5.424;2023-04-29T00:02:14;101541.69;;;9.35;97.06
76694;BME280;69667;52.136;5.424;2023-04-29T00:04:40;101543.44;;;9.36;96.78
76694;BME280;69667;52.136;5.424;2023-04-29T00:07:07;101545.94;;;9.39;96.89
76694;BME280;69667;52.136;5.424;2023-04-29T00:09:34;101551.53;;;9.36;96.90
76694;BME280;69667;52.136;5.424;2023-04-29T00:12:02;101551.53;;;9.36;96.99
76694;BME280;69667;52.136;5.424;2023-04-29T00:14:29;101553.25;;;9.37;97.22
76694;BME280;69667;52.136;5.424;2023-04-29T00:16:55;101553.25;;;9.37;97.05
76694;BME280;69667;52.136;5.424;2023-04-29T00:19:22;101558.72;;;9.35;96.81
76694;BME280;69667;52.136;5.424;2023-04-29T00:21:49;101552.75;;;9.30;97.24
76694;BME280;69667;52.136;5.424;2023-04-29T00:24:15;101558.13;;;9.30;97.09
76694;BME280;69667;52.136;5.424;2023-04-29T00:26:42;101555.44;;;9.30;97.50
76694;BME280;69667;52.136;5.424;2023-04-29T00:29:08;101567.09;;;9.31;97.07
76694;BME280;69667;52.136;5.424;2023-04-29T00:31:35;101569.69;;;9.32;97.28
76694;BME280;69667;52.136;5.424;2023-04-29T00:34:02;101575.88;;;9.34;97.41
76694;BME280;69667;52.136;5.424;2023-04-29T00:36:29;101572.47;;;9.31;97.15
76694;BME280;69667;52.136;5.424;2023-04-29T00:38:57;101571.41;;;9.33;97.29
76694;BME280;69667;52.136;5.424;2023-04-29T00:41:24;101576.91;;;9.32;97.27
76694;BME280;69667;52.136;5.424;2023-04-29T00:43:51;101577.69;;;9.34;97.10
76694;BME280;69667;52.136;5.424;2023-04-29T00:46:18;101577.78;;;9.32;97.39
76694;BME280;69667;52.136;5.424;2023-04-29T00:48:45;101589.44;;;9.33;97.23
76694;BME280;69667;52.136;5.424;2023-04-29T00:51:12;101575.19;;;9.31;97.42
76694;BME280;69667;52.136;5.424;2023-04-29T00:53:39;101577.69;;;9.34;97.18
76694;BME280;69667;52.136;5.424;2023-04-29T00:56:06;101583.94;;;9.34;97.53
76694;BME280;69667;52.136;5.424;2023-04-29T00:58:34;101590.13;;;9.36;97.41
76694;BME280;69667;52.136;5.424;2023-04-29T01:01:01;101583.94;;;9.34;97.22
76694;BME280;69667;52.136;5.424;2023-04-29T01:03:29;101588.56;;;9.32;97.37
76694;BME280;69667;52.136;5.424;2023-04-29T01:06:25;101586.84;;;9.31;97.10
76694;BME280;69667;52.136;5.424;2023-04-29T01:09:07;101593.94;;;9.32;97.16
76694;BME280;69667;52.136;5.424;2023-04-29T01:14:42;101600.53;;;9.27;97.39
76694;BME280;69667;52.136;5.424;2023-04-29T01:17:17;101607.84;;;9.25;97.30
76694;BME280;69667;52.136;5.424;2023-04-29T01:19:47;101609.78;;;9.23;97.21
76694;BME280;69667;52.136;5.424;2023-04-29T01:22:15;101615.91;;;9.25;97.47
76694;BME280;69667;52.136;5.424;2023-04-29T01:24:47;101618.00;;;9.20;97.36
76694;BME280;69667;52.136;5.424;2023-04-29T01:27:27;101618.97;;;9.19;96.85
76694;BME280;69667;52.136;5.424;2023-04-29T01:36:07;101616.66;;;9.13;97.17
76694;BME280;69667;52.136;5.424;2023-04-29T01:41:30;101622.78;;;9.15;97.23
76694;BME280;69667;52.136;5.424;2023-04-29T01:44:14;101629.06;;;9.15;96.98
76694;BME280;69667;52.136;5.424;2023-04-29T01:46:44;101631.75;;;9.15;97.18
76694;BME280;69667;52.136;5.424;2023-04-29T01:49:14;101634.34;;;9.17;97.12
76694;BME280;69667;52.136;5.424;2023-04-29T01:51:41;101629.84;;;9.17;97.47
76694;BME280;69667;52.136;5.424;2023-04-29T01:54:07;101639.81;;;9.15;97.10
76694;BME280;69667;52.136;5.424;2023-04-29T01:56:34;101637.03;;;9.17;97.08
76694;BME280;69667;52.136;5.424;2023-04-29T01:59:18;101647.63;;;9.20;97.36
76694;BME280;69667;52.136;5.424;2023-04-29T02:02:05;101642.19;;;9.21;97.32
76694;BME280;69667;52.136;5.424;2023-04-29T02:04:35;101644.94;;;9.20;97.18
76694;BME280;69667;52.136;5.424;2023-04-29T02:07:01;101636.94;;;9.18;97.17
76694;BME280;69667;52.136;5.424;2023-04-29T02:09:29;101642.25;;;9.20;96.98
76694;BME280;69667;52.136;5.424;2023-04-29T02:12:04;101646.78;;;9.19;96.97
76694;BME280;69667;52.136;5.424;2023-04-29T02:14:31;101649.47;;;9.19;97.17
76694;BME280;69667;52.136;5.424;2023-04-29T02:17:02;101657.38;;;9.22;96.89
76694;BME280;69667;52.136;5.424;2023-04-29T02:19:29;101652.78;;;9.24;97.25
76694;BME280;69667;52.136;5.424;2023-04-29T02:21:56;101664.59;;;9.22;96.87
76694;BME280;69667;52.136;5.424;2023-04-29T02:24:24;101663.66;;;9.23;97.00
76694;BME280;69667;52.136;5.424;2023-04-29T02:26:50;101667.28;;;9.22;96.94
76694;BME280;69667;52.136;5.424;2023-04-29T02:29:17;101680.66;;;9.23;96.96
76694;BME280;69667;52.136;5.424;2023-04-29T02:31:44;101677.97;;;9.23;96.79
76694;BME280;69667;52.136;5.424;2023-04-29T02:34:10;101675.28;;;9.23;97.04
76694;BME280;69667;52.136;5.424;2023-04-29T02:36:37;101677.03;;;9.24;96.74
76694;BME280;69667;52.136;5.424;2023-04-29T02:39:03;101680.66;;;9.23;96.98
76694;BME280;69667;52.136;5.424;2023-04-29T02:41:30;101687.72;;;9.26;96.85
76694;BME280;69667;52.136;5.424;2023-04-29T02:43:57;101687.72;;;9.26;97.15
76694;BME280;69667;52.136;5.424;2023-04-29T02:46:23;101687.72;;;9.26;96.83
76694;BME280;69667;52.136;5.424;2023-04-29T02:48:51;101694.03;;;9.25;96.67
76694;BME280;69667;52.136;5.424;2023-04-29T02:51:18;101696.81;;;9.23;96.63
76694;BME280;69667;52.136;5.424;2023-04-29T02:53:45;101701.19;;;9.26;96.52
76694;BME280;69667;52.136;5.424;2023-04-29T02:56:11;101694.13;;;9.23;96.85
76694;BME280;69667;52.136;5.424;2023-04-29T02:58:37;101705.69;;;9.25;96.80
76694;BME280;69667;52.136;5.424;2023-04-29T03:01:04;101699.50;;;9.23;96.73
76694;BME280;69667;52.136;5.424;2023-04-29T03:03:30;101712.03;;;9.24;96.96
76694;BME280;69667;52.136;5.424;2023-04-29T03:05:57;101712.13;;;9.23;96.76
76694;BME280;69667;52.136;5.424;2023-04-29T03:08:24;101708.38;;;9.25;96.57
76694;BME280;69667;52.136;5.424;2023-04-29T03:10:50;101710.19;;;9.25;96.65
76694;BME280;69667;52.136;5.424;2023-04-29T03:13:17;101717.53;;;9.23;96.64
76694;BME280;69667;52.136;5.424;2023-04-29T03:15:44;101719.44;;;9.21;96.33
76694;BME280;69667;52.136;5.424;2023-04-29T03:18:11;101725.75;;;9.20;96.67
76694;BME280;69667;52.136;5.424;2023-04-29T03:20:37;101722.28;;;9.18;96.21
76694;BME280;69667;52.136;5.424;2023-04-29T03:23:04;101720.53;;;9.17;96.16
76694;BME280;69667;52.136;5.424;2023-04-29T03:25:30;101726.81;;;9.17;96.54
76694;BME280;69667;52.136;5.424;2023-04-29T03:27:57;101734.97;;;9.16;96.14
76694;BME280;69667;52.136;5.424;2023-04-29T03:30:23;101730.50;;;9.15;96.15
76694;BME280;69667;52.136;5.424;2023-04-29T03:32:53;101734.88;;;9.17;96.14
76694;BME280;69667;52.136;5.424;2023-04-29T03:35:20;101730.50;;;9.15;95.97
76694;BME280;69667;52.136;5.424;2023-04-29T03:38:12;101726.09;;;9.14;95.86
76694;BME280;69667;52.136;5.424;2023-04-29T03:40:39;101735.16;;;9.13;95.56
76694;BME280;69667;52.136;5.424;2023-04-29T03:43:06;101744.25;;;9.10;95.30
76694;BME280;69667;52.136;5.424;2023-04-29T03:45:34;101742.53;;;9.09;95.06
76694;BME280;69667;52.136;5.424;2023-04-29T03:48:01;101743.53;;;9.07;95.00
76694;BME280;69667;52.136;5.424;2023-04-29T03:50:29;101748.94;;;9.07;94.81
76694;BME280;69667;52.136;5.424;2023-04-29T03:52:55;101749.91;;;9.06;94.66
76694;BME280;69667;52.136;5.424;2023-04-29T03:55:23;101753.38;;;9.08;94.37
76694;BME280;69667;52.136;5.424;2023-04-29T03:57:49;101750.59;;;9.09;94.37
76694;BME280;69667;52.136;5.424;2023-04-29T04:00:17;101753.38;;;9.08;94.13
76694;BME280;69667;52.136;5.424;2023-04-29T04:02:48;101765.97;;;9.07;93.98
76694;BME280;69667;52.136;5.424;2023-04-29T04:05:15;101756.16;;;9.06;94.02
76694;BME280;69667;52.136;5.424;2023-04-29T04:07:48;101767.78;;;9.07;93.73
76694;BME280;69667;52.136;5.424;2023-04-29T04:10:32;101768.66;;;9.07;93.43
76694;BME280;69667;52.136;5.424;2023-04-29T04:13:02;101762.56;;;9.04;93.40
76694;BME280;69667;52.136;5.424;2023-04-29T04:15:29;101769.69;;;9.05;93.06
76694;BME280;69667;52.136;5.424;2023-04-29T04:17:56;101773.25;;;9.05;93.10
76694;BME280;69667;52.136;5.424;2023-04-29T04:20:23;101776.03;;;9.04;92.78
76694;BME280;69667;52.136;5.424;2023-04-29T04:22:49;101776.13;;;9.02;92.75
76694;BME280;69667;52.136;5.424;2023-04-29T04:25:27;101769.84;;;9.02;92.71
76694;BME280;69667;52.136;5.424;2023-04-29T04:28:04;101783.41;;;9.00;92.05
76694;BME280;69667;52.136;5.424;2023-04-29T04:30:49;101776.81;;;9.06;92.06
76694;BME280;69667;52.136;5.424;2023-04-29T04:33:16;101771.59;;;9.03;92.38
76694;BME280;69667;52.136;5.424;2023-04-29T04:35:44;101780.44;;;9.05;91.77
76694;BME280;69667;52.136;5.424;2023-04-29T04:38:11;101780.41;;;9.06;91.76
76694;BME280;69667;52.136;5.424;2023-04-29T04:40:41;101790.19;;;9.07;91.95
76694;BME280;69667;52.136;5.424;2023-04-29T04:43:25;101795.50;;;9.09;92.20
76694;BME280;69667;52.136;5.424;2023-04-29T04:45:52;101798.19;;;9.09;92.31
76694;BME280;69667;52.136;5.424;2023-04-29T04:48:19;101809.75;;;9.11;92.63
76694;BME280;69667;52.136;5.424;2023-04-29T04:51:08;101806.09;;;9.12;92.84
76694;BME280;69667;52.136;5.424;2023-04-29T04:53:35;101818.63;;;9.13;92.46
76694;BME280;69667;52.136;5.424;2023-04-29T04:56:07;101814.09;;;9.13;92.21
76694;BME280;69667;52.136;5.424;2023-04-29T04:58:34;101816.56;;;9.18;92.39
76694;BME280;69667;52.136;5.424;2023-04-29T05:01:02;101826.38;;;9.19;92.67
76694;BME280;69667;52.136;5.424;2023-04-29T05:03:28;101826.19;;;9.22;92.94
76694;BME280;69667;52.136;5.424;2023-04-29T05:05:56;101828.72;;;9.25;92.38
76694;BME280;69667;52.136;5.424;2023-04-29T05:08:24;101833.81;;;9.31;92.56
76694;BME280;69667;52.136;5.424;2023-04-29T05:10:54;101835.34;;;9.35;92.27
76694;BME280;69667;52.136;5.424;2023-04-29T05:13:21;101830.69;;;9.38;92.40
76694;BME280;69667;52.136;5.424;2023-04-29T05:15:47;101839.28;;;9.45;92.72
76694;BME280;69667;52.136;5.424;2023-04-29T05:18:19;101838.88;;;9.52;92.30
76694;BME280;69667;52.136;5.424;2023-04-29T05:20:48;101842.91;;;9.61;92.35
76694;BME280;69667;52.136;5.424;2023-04-29T05:23:15;101852.44;;;9.66;92.02
76694;BME280;69667;52.136;5.424;2023-04-29T05:25:44;101857.44;;;9.74;91.70
76694;BME280;69667;52.136;5.424;2023-04-29T05:28:10;101847.44;;;9.76;91.63
76694;BME280;69667;52.136;5.424;2023-04-29T05:30:39;101849.47;;;9.88;92.05
76694;BME280;69667;52.136;5.424;2023-04-29T05:33:06;101849.00;;;9.95;91.17
76694;BME280;69667;52.136;5.424;2023-04-29T05:35:33;101861.63;;;9.95;90.49
76694;BME280;69667;52.136;5.424;2023-04-29T05:38:00;101858.91;;;9.95;90.57
76694;BME280;69667;52.136;5.424;2023-04-29T05:40:34;101860.59;;;9.97;90.95
76694;BME280;69667;52.136;5.424;2023-04-29T05:43:20;101862.44;;;10.12;90.76
76694;BME280;69667;52.136;5.424;2023-04-29T05:45:47;101861.03;;;10.37;90.57
76694;BME280;69667;52.136;5.424;2023-04-29T05:48:13;101850.72;;;10.59;89.39
76694;BME280;69667;52.136;5.424;2023-04-29T05:50:40;101866.19;;;10.71;89.00
76694;BME280;69667;52.136;5.424;2023-04-29T05:53:07;101863.94;;;10.93;88.25
76694;BME280;69667;52.136;5.424;2023-04-29T05:55:34;101867.25;;;11.12;87.70
76694;BME280;69667;52.136;5.424;2023-04-29T05:58:00;101872.88;;;11.37;87.09
76694;BME280;69667;52.136;5.424;2023-04-29T06:00:27;101877.34;;;11.52;85.81
76694;BME280;69667;52.136;5.424;2023-04-29T06:03:00;101876.50;;;11.66;85.17
76694;BME280;69667;52.136;5.424;2023-04-29T06:05:26;101883.56;;;11.82;84.26
76694;BME280;69667;52.136;5.424;2023-04-29T06:08:08;101887.13;;;11.83;84.16
76694;BME280;69667;52.136;5.424;2023-04-29T06:10:43;101889.38;;;11.76;84.10
76694;BME280;69667;52.136;5.424;2023-04-29T06:13:11;101894.47;;;11.67;83.46
76694;BME280;69667;52.136;5.424;2023-04-29T06:15:37;101898.25;;;11.78;84.02
76694;BME280;69667;52.136;5.424;2023-04-29T06:18:04;101900.94;;;11.92;83.29
76694;BME280;69667;52.136;5.424;2023-04-29T06:20:31;101906.91;;;12.11;83.94
76694;BME280;69667;52.136;5.424;2023-04-29T06:22:57;101909.09;;;12.19;83.38
76694;BME280;69667;52.136;5.424;2023-04-29T06:25:24;101914.56;;;12.05;82.30
76694;BME280;69667;52.136;5.424;2023-04-29T06:27:50;101917.84;;;12.10;82.74
76694;BME280;69667;52.136;5.424;2023-04-29T06:30:20;101910.03;;;12.32;81.64
76694;BME280;69667;52.136;5.424;2023-04-29T06:32:47;101914.72;;;12.16;81.14
76694;BME280;69667;52.136;5.424;2023-04-29T06:35:14;101923.06;;;11.99;81.88
76694;BME280;69667;52.136;5.424;2023-04-29T06:38:04;101917.53;;;12.00;82.05
76694;BME280;69667;52.136;5.424;2023-04-29T06:40:39;101921.06;;;12.43;81.19
76694;BME280;69667;52.136;5.424;2023-04-29T06:43:11;101932.00;;;12.41;80.32
76694;BME280;69667;52.136;5.424;2023-04-29T06:46:08;101930.88;;;12.85;79.42
76694;BME280;69667;52.136;5.424;2023-04-29T06:48:44;101941.84;;;13.22;77.67
76694;BME280;69667;52.136;5.424;2023-04-29T06:51:11;101953.81;;;12.79;77.87
76694;BME280;69667;52.136;5.424;2023-04-29T06:53:38;101958.44;;;12.91;77.30
76694;BME280;69667;52.136;5.424;2023-04-29T06:56:04;101949.13;;;13.22;77.89
76694;BME280;69667;52.136;5.424;2023-04-29T06:58:32;101952.88;;;14.09;75.40
76694;BME280;69667;52.136;5.424;2023-04-29T07:00:59;101957.69;;;14.77;73.08
76694;BME280;69667;52.136;5.424;2023-04-29T07:03:25;101955.84;;;14.78;70.47
76694;BME280;69667;52.136;5.424;2023-04-29T07:05:52;101963.75;;;14.81;72.33
76694;BME280;69667;52.136;5.424;2023-04-29T07:08:19;101954.88;;;16.71;64.56
76694;BME280;69667;52.136;5.424;2023-04-29T07:10:53;101970.19;;;15.03;66.97
76694;BME280;69667;52.136;5.424;2023-04-29T07:13:22;101974.91;;;13.79;69.70
76694;BME280;69667;52.136;5.424;2023-04-29T07:15:49;101974.66;;;13.57;71.52
76694;BME280;69667;52.136;5.424;2023-04-29T07:18:16;101980.41;;;13.52;71.95
76694;BME280;69667;52.136;5.424;2023-04-29T07:20:43;101980.22;;;14.06;71.14
76694;BME280;69667;52.136;5.424;2023-04-29T07:23:09;101972.22;;;15.93;68.05
76694;BME280;69667;52.136;5.424;2023-04-29T07:25:36;101970.03;;;19.38;57.14
76694;BME280;69667;52.136;5.424;2023-04-29T07:28:04;101980.03;;;17.90;56.94
76694;BME280;69667;52.136;5.424;2023-04-29T07:30:30;101988.56;;;15.82;61.47
76694;BME280;69667;52.136;5.424;2023-04-29T07:32:57;102004.13;;;14.74;65.67
76694;BME280;69667;52.136;5.424;2023-04-29T07:35:23;101999.22;;;14.43;69.13
76694;BME280;69667;52.136;5.424;2023-04-29T07:37:50;102004.88;;;14.28;67.52
76694;BME280;69667;52.136;5.424;2023-04-29T07:40:17;102006.06;;;14.11;68.03
76694;BME280;69667;52.136;5.424;2023-04-29T07:42:44;102009.13;;;14.07;69.89
76694;BME280;69667;52.136;5.424;2023-04-29T07:45:11;102004.75;;;14.42;68.30
76694;BME280;69667;52.136;5.424;2023-04-29T07:47:39;102006.00;;;15.45;65.62
76694;BME280;69667;52.136;5.424;2023-04-29T07:50:06;102001.50;;;18.45;58.83
76694;BME280;69667;52.136;5.424;2023-04-29T07:52:32;101991.63;;;21.87;49.29
76694;BME280;69667;52.136;5.424;2023-04-29T07:54:59;101999.81;;;22.30;47.01
76694;BME280;69667;52.136;5.424;2023-04-29T07:57:26;102003.38;;;22.48;44.63
76694;BME280;69667;52.136;5.424;2023-04-29T07:59:53;101998.09;;;23.94;41.66
76694;BME280;69667;52.136;5.424;2023-04-29T08:02:20;102004.66;;;24.64;39.67
76694;BME280;69667;52.136;5.424;2023-04-29T08:04:48;102003.91;;;24.39;37.68
76694;BME280;69667;52.136;5.424;2023-04-29T08:07:17;101999.47;;;23.50;39.70
76694;BME280;69667;52.136;5.424;2023-04-29T08:09:43;102007.13;;;24.51;37.03
76694;BME280;69667;52.136;5.424;2023-04-29T08:12:10;102008.16;;;25.05;36.83
76694;BME280;69667;52.136;5.424;2023-04-29T08:14:39;102005.28;;;25.74;35.32
76694;BME280;69667;52.136;5.424;2023-04-29T08:17:05;102017.13;;;26.57;36.00
76694;BME280;69667;52.136;5.424;2023-04-29T08:19:32;102019.50;;;27.03;35.09
76694;BME280;69667;52.136;5.424;2023-04-29T08:21:59;102023.63;;;25.22;37.17
76694;BME280;69667;52.136;5.424;2023-04-29T08:24:26;102032.97;;;23.21;37.57
76694;BME280;69667;52.136;5.424;2023-04-29T08:26:54;102040.06;;;21.17;41.61
76694;BME280;69667;52.136;5.424;2023-04-29T08:29:20;102031.00;;;19.78;46.50
76694;BME280;69667;52.136;5.424;2023-04-29T08:31:47;102033.53;;;18.64;47.42
76694;BME280;69667;52.136;5.424;2023-04-29T08:34:13;102041.41;;;17.65;49.53
76694;BME280;69667;52.136;5.424;2023-04-29T08:36:40;102041.84;;;17.50;52.09
76694;BME280;69667;52.136;5.424;2023-04-29T08:39:06;102031.72;;;19.61;47.72
76694;BME280;69667;52.136;5.424;2023-04-29T08:41:35;102028.84;;;21.28;44.71
76694;BME280;69667;52.136;5.424;2023-04-29T08:44:02;102030.00;;;22.39;41.08
76694;BME280;69667;52.136;5.424;2023-04-29T08:46:28;102033.75;;;22.38;41.96
76694;BME280;69667;52.136;5.424;2023-04-29T08:48:56;102034.94;;;21.50;43.95
76694;BME280;69667;52.136;5.424;2023-04-29T08:51:24;102037.69;;;20.68;44.81
76694;BME280;69667;52.136;5.424;2023-04-29T08:53:50;102039.63;;;19.83;47.67
76694;BME280;69667;52.136;5.424;2023-04-29T08:56:17;102047.69;;;19.28;50.04
76694;BME280;69667;52.136;5.424;2023-04-29T08:58:46;102054.13;;;18.68;48.17
76694;BME280;69667;52.136;5.424;2023-04-29T09:01:17;102053.47;;;17.84;51.56
76694;BME280;69667;52.136;5.424;2023-04-29T09:04:00;102060.22;;;17.26;54.20
76694;BME280;69667;52.136;5.424;2023-04-29T09:06:31;102058.72;;;16.79;53.87
76694;BME280;69667;52.136;5.424;2023-04-29T09:08:59;102059.66;;;17.22;58.33
76694;BME280;69667;52.136;5.424;2023-04-29T09:11:28;102062.34;;;19.17;49.80
76694;BME280;69667;52.136;5.424;2023-04-29T09:13:59;102059.69;;;18.87;48.75
76694;BME280;69667;52.136;5.424;2023-04-29T09:16:27;102066.88;;;18.58;52.40
76694;BME280;69667;52.136;5.424;2023-04-29T09:18:54;102073.34;;;20.32;48.67
76694;BME280;69667;52.136;5.424;2023-04-29T09:21:24;102069.16;;;20.37;47.01
76694;BME280;69667;52.136;5.424;2023-04-29T09:24:01;102070.25;;;19.11;49.00
76694;BME280;69667;52.136;5.424;2023-04-29T09:26:42;102065.59;;;19.89;46.71
76694;BME280;69667;52.136;5.424;2023-04-29T09:29:13;102067.22;;;21.38;43.56
76694;BME280;69667;52.136;5.424;2023-04-29T09:31:41;102060.13;;;21.63;41.69
76694;BME280;69667;52.136;5.424;2023-04-29T09:34:09;102074.91;;;20.80;43.79
76694;BME280;69667;52.136;5.424;2023-04-29T09:39:17;102084.97;;;20.62;44.85
76694;BME280;69667;52.136;5.424;2023-04-29T09:44:24;102076.63;;;21.98;44.11
76694;BME280;69667;52.136;5.424;2023-04-29T09:47:03;102088.97;;;22.54;45.12
76694;BME280;69667;52.136;5.424;2023-04-29T09:49:34;102084.16;;;22.90;40.79
76694;BME280;69667;52.136;5.424;2023-04-29T09:52:04;102075.97;;;23.48;39.91
76694;BME280;69667;52.136;5.424;2023-04-29T09:54:32;102084.66;;;21.91;41.45
76694;BME280;69667;52.136;5.424;2023-04-29T09:57:01;102100.56;;;20.98;44.21
76694;BME280;69667;52.136;5.424;2023-04-29T09:59:27;102097.47;;;22.51;45.25
76694;BME280;69667;52.136;5.424;2023-04-29T10:01:56;102088.41;;;23.60;43.03
76694;BME280;69667;52.136;5.424;2023-04-29T10:04:25;102080.00;;;24.18;39.18
76694;BME280;69667;52.136;5.424;2023-04-29T10:06:53;102077.22;;;24.34;39.47
76694;BME280;69667;52.136;5.424;2023-04-29T10:09:22;102074.50;;;24.10;36.70
76694;BME280;69667;52.136;5.424;2023-04-29T10:11:52;102069.81;;;24.10;39.22
76694;BME280;69667;52.136;5.424;2023-04-29T10:14:20;102083.91;;;24.55;37.66
76694;BME280;69667;52.136;5.424;2023-04-29T10:16:58;102088.25;;;22.78;39.55
76694;BME280;69667;52.136;5.424;2023-04-29T10:19:33;102093.56;;;21.13;44.19
76694;BME280;69667;52.136;5.424;2023-04-29T10:22:06;102087.31;;;20.48;44.04
76694;BME280;69667;52.136;5.424;2023-04-29T10:24:38;102088.06;;;21.58;41.74
76694;BME280;69667;52.136;5.424;2023-04-29T10:27:06;102083.00;;;22.67;44.06
76694;BME280;69667;52.136;5.424;2023-04-29T10:29:39;102091.97;;;23.03;38.90
76694;BME280;69667;52.136;5.424;2023-04-29T10:32:08;102090.31;;;23.83;39.48
76694;BME280;69667;52.136;5.424;2023-04-29T10:34:38;102093.97;;;23.26;40.54
76694;BME280;69667;52.136;5.424;2023-04-29T10:37:08;102092.59;;;22.37;39.56
76694;BME280;69667;52.136;5.424;2023-04-29T10:39:41;102085.72;;;21.18;40.51
76694;BME280;69667;52.136;5.424;2023-04-29T10:42:35;102106.88;;;19.87;44.28
76694;BME280;69667;52.136;5.424;2023-04-29T10:45:23;102104.50;;;19.45;45.49
76694;BME280;69667;52.136;5.424;2023-04-29T10:48:07;102101.13;;;21.56;41.84
76694;BME280;69667;52.136;5.424;2023-04-29T10:53:14;102093.06;;;21.27;41.79
76694;BME280;69667;52.136;5.424;2023-04-29T10:55:42;102093.88;;;21.10;41.54
76694;BME280;69667;52.136;5.424;2023-04-29T10:58:44;102087.66;;;21.35;43.32
76694;BME280;69667;52.136;5.424;2023-04-29T11:01:16;102095.44;;;21.75;42.47
76694;BME280;69667;52.136;5.424;2023-04-29T11:03:47;102091.50;;;21.60;40.72
76694;BME280;69667;52.136;5.424;2023-04-29T11:06:15;102096.00;;;20.80;43.03
76694;BME280;69667;52.136;5.424;2023-04-29T11:08:42;102095.72;;;20.83;43.81
76694;BME280;69667;52.136;5.424;2023-04-29T11:11:08;102093.50;;;20.59;43.62
76694;BME280;69667;52.136;5.424;2023-04-29T11:13:39;102097.63;;;19.79;45.81
76694;BME280;69667;52.136;5.424;2023-04-29T11:16:08;102100.19;;;21.20;45.42
76694;BME280;69667;52.136;5.424;2023-04-29T11:18:36;102092.59;;;22.37;39.21
76694;BME280;69667;52.136;5.424;2023-04-29T11:21:22;102098.53;;;20.64;39.79
76694;BME280;69667;52.136;5.424;2023-04-29T11:23:50;102100.78;;;19.46;43.25
76694;BME280;69667;52.136;5.424;2023-04-29T11:26:20;102109.47;;;19.89;42.62
76694;BME280;69667;52.136;5.424;2023-04-29T11:28:50;102099.94;;;20.31;43.59
76694;BME280;69667;52.136;5.424;2023-04-29T11:31:17;102097.03;;;20.23;42.32
76694;BME280;69667;52.136;5.424;2023-04-29T11:33:43;102101.50;;;19.67;45.26
76694;BME280;69667;52.136;5.424;2023-04-29T11:36:11;102108.72;;;19.58;45.46
76694;BME280;69667;52.136;5.424;2023-04-29T11:38:39;102096.00;;;20.14;50.04
76694;BME280;69667;52.136;5.424;2023-04-29T11:41:07;102109.47;;;21.10;44.14
76694;BME280;69667;52.136;5.424;2023-04-29T11:43:34;102103.00;;;21.56;43.90
76694;BME280;69667;52.136;5.424;2023-04-29T11:46:00;102096.31;;;21.76;40.93
76694;BME280;69667;52.136;5.424;2023-04-29T11:48:27;102089.41;;;22.07;43.79
76694;BME280;69667;52.136;5.424;2023-04-29T11:50:56;102092.91;;;22.34;42.72
76694;BME280;69667;52.136;5.424;2023-04-29T11:53:25;102088.97;;;22.11;41.41
76694;BME280;69667;52.136;5.424;2023-04-29T11:55:53;102093.34;;;21.87;44.40
76694;BME280;69667;52.136;5.424;2023-04-29T11:58:21;102091.22;;;22.16;39.66
76694;BME280;69667;52.136;5.424;2023-04-29T12:00:49;102096.53;;;21.02;40.02
76694;BME280;69667;52.136;5.424;2023-04-29T12:03:19;102099.66;;;21.34;45.17
76694;BME280;69667;52.136;5.424;2023-04-29T12:05:53;102099.44;;;21.63;40.80
76694;BME280;69667;52.136;5.424;2023-04-29T12:08:20;102106.88;;;21.98;44.32
76694;BME280;69667;52.136;5.424;2023-04-29T12:10:47;102100.75;;;21.86;43.35
76694;BME280;69667;52.136;5.424;2023-04-29T12:13:18;102104.78;;;20.93;42.33
76694;BME280;69667;52.136;5.424;2023-04-29T12:15:49;102106.22;;;20.51;43.27
76694;BME280;69667;52.136;5.424;2023-04-29T12:18:17;102100.75;;;20.87;40.38
76694;BME280;69667;52.136;5.424;2023-04-29T12:20:44;102102.56;;;20.60;40.12
76694;BME280;69667;52.136;5.424;2023-04-29T12:23:13;102098.19;;;20.76;39.97
76694;BME280;69667;52.136;5.424;2023-04-29T12:25:40;102100.56;;;20.62;45.06
76694;BME280;69667;52.136;5.424;2023-04-29T12:28:11;102095.81;;;21.27;44.52
76694;BME280;69667;52.136;5.424;2023-04-29T12:30:38;102098.06;;;21.14;43.13
76694;BME280;69667;52.136;5.424;2023-04-29T12:33:07;102102.09;;;20.28;44.19
76694;BME280;69667;52.136;5.424;2023-04-29T12:35:36;102094.69;;;20.47;43.56
76694;BME280;69667;52.136;5.424;2023-04-29T12:38:02;102096.22;;;21.05;45.48
76694;BME280;69667;52.136;5.424;2023-04-29T12:40:31;102091.28;;;20.72;46.05
76694;BME280;69667;52.136;5.424;2023-04-29T12:43:05;102099.47;;;20.36;45.92
76694;BME280;69667;52.136;5.424;2023-04-29T12:45:32;102092.28;;;20.06;45.92
76694;BME280;69667;52.136;5.424;2023-04-29T12:48:00;102098.59;;;20.35;46.17
76694;BME280;69667;52.136;5.424;2023-04-29T12:50:36;102105.06;;;20.53;45.67
76694;BME280;69667;52.136;5.424;2023-04-29T12:53:04;102101.38;;;20.26;49.10
76694;BME280;69667;52.136;5.424;2023-04-29T12:55:33;102101.22;;;20.83;44.74
76694;BME280;69667;52.136;5.424;2023-04-29T12:58:00;102112.28;;;20.45;45.38
76694;BME280;69667;52.136;5.424;2023-04-29T13:00:27;102110.56;;;19.58;47.85
76694;BME280;69667;52.136;5.424;2023-04-29T13:02:53;102109.69;;;18.99;45.09
76694;BME280;69667;52.136;5.424;2023-04-29T13:05:21;102111.63;;;19.17;46.73
76694;BME280;69667;52.136;5.424;2023-04-29T13:07:48;102100.63;;;20.04;47.40
76694;BME280;69667;52.136;5.424;2023-04-29T13:10:15;102102.09;;;20.18;43.10
76694;BME280;69667;52.136;5.424;2023-04-29T13:12:41;102104.53;;;20.11;43.23
76694;BME280;69667;52.136;5.424;2023-04-29T13:15:08;102115.50;;;20.02;45.31
76694;BME280;69667;52.136;5.424;2023-04-29T13:17:36;102106.84;;;20.26;46.86
76694;BME280;69667;52.136;5.424;2023-04-29T13:20:03;102110.66;;;20.61;44.05
76694;BME280;69667;52.136;5.424;2023-04-29T13:22:31;102111.22;;;20.65;44.11
76694;BME280;69667;52.136;5.424;2023-04-29T13:24:58;102113.22;;;20.72;46.72
76694;BME280;69667;52.136;5.424;2023-04-29T13:27:24;102111.91;;;20.30;43.62